Time;durP1;ratioP1;P1;durP2;ratioP2;P2;SDS_P1;SDS_P2;PMS_P1;PMS_P2;Temp;Humidity;BMP_temperature;BMP_pressure;BME280_temperature;BME280_humidity;BME280_pressure;Samples;Min_cycle;Max_cycle;Signal;HPM_P1;HPM_P2
2022/03/13 00:00:57;;;;;;;0.63;0.40;;;21.30;41.20;;;;;;5102200;28;20484;-47
2022/03/13 00:03:23;;;;;;;0.22;0.20;;;21.40;41.60;;;;;;5088339;28;20095;-46
2022/03/13 00:05:51;;;;;;;0.25;0.20;;;21.40;41.60;;;;;;5101251;28;20028;-47
2022/03/13 00:08:19;;;;;;;0.35;0.20;;;21.60;40.90;;;;;;5100329;28;20065;-46
2022/03/13 00:10:47;;;;;;;0.50;0.35;;;21.60;41.10;;;;;;5096102;28;20032;-48
2022/03/13 00:13:19;;;;;;;0.40;0.22;;;21.70;41.50;;;;;;5101351;28;20035;-50
2022/03/13 00:15:45;;;;;;;0.57;0.30;;;21.70;41.40;;;;;;5100691;28;20032;-48
2022/03/13 00:18:12;;;;;;;0.40;0.20;;;21.70;41.10;;;;;;5100704;28;20044;-47
2022/03/13 00:20:38;;;;;;;0.50;0.30;;;21.70;41.10;;;;;;5101511;28;20029;-48
2022/03/13 00:23:06;;;;;;;0.65;0.40;;;21.70;40.70;;;;;;5101451;28;20039;-48
2022/03/13 00:25:32;;;;;;;1.00;0.40;;;21.70;40.50;;;;;;5101532;28;20070;-47
2022/03/13 00:27:58;;;;;;;0.57;0.45;;;21.80;40.70;;;;;;5101238;28;20408;-47
2022/03/13 00:30:24;;;;;;;0.77;0.47;;;21.80;40.80;;;;;;5101730;28;20024;-47
2022/03/13 00:32:50;;;;;;;1.48;0.60;;;21.90;41.00;;;;;;5101174;28;20039;-50
2022/03/13 00:35:16;;;;;;;1.00;0.60;;;22.00;41.20;;;;;;5100897;28;20555;-46
2022/03/13 00:37:42;;;;;;;0.85;0.50;;;22.10;40.60;;;;;;5093272;28;20030;-48
2022/03/13 00:40:10;;;;;;;0.93;0.50;;;22.10;40.50;;;;;;5102750;28;20036;-47
2022/03/13 00:42:37;;;;;;;1.05;0.60;;;22.10;40.60;;;;;;5111706;28;20102;-48
2022/03/13 00:45:03;;;;;;;0.88;0.50;;;22.10;40.70;;;;;;5090640;28;20029;-47
2022/03/13 00:47:29;;;;;;;1.23;0.60;;;22.10;40.50;;;;;;5097857;28;20068;-49
2022/03/13 00:49:55;;;;;;;1.15;0.65;;;22.00;40.10;;;;;;5101730;28;20036;-49
2022/03/13 00:52:21;;;;;;;0.75;0.55;;;22.10;40.20;;;;;;5100987;28;20062;-48
2022/03/13 00:54:48;;;;;;;1.30;0.68;;;22.10;40.20;;;;;;5100296;28;20042;-48
2022/03/13 00:57:14;;;;;;;0.77;0.60;;;22.20;40.50;;;;;;5100721;28;20055;-47
2022/03/13 00:59:40;;;;;;;1.30;0.80;;;22.20;40.40;;;;;;5101093;28;20028;-47
2022/03/13 01:02:06;;;;;;;0.90;0.60;;;22.30;40.60;;;;;;5101338;28;20028;-48
2022/03/13 01:04:33;;;;;;;0.68;0.47;;;22.30;40.50;;;;;;5101443;28;20047;-48
2022/03/13 01:06:59;;;;;;;1.30;0.80;;;22.30;40.50;;;;;;5100282;28;20032;-48
2022/03/13 01:09:25;;;;;;;0.68;0.50;;;22.30;40.30;;;;;;5100236;28;20112;-48
2022/03/13 01:11:51;;;;;;;2.58;1.20;;;22.20;40.10;;;;;;5096916;28;20028;-47
2022/03/13 01:14:17;;;;;;;1.52;0.90;;;22.20;40.10;;;;;;5097218;28;20055;-48
2022/03/13 01:16:44;;;;;;;1.75;1.02;;;22.30;40.20;;;;;;5100194;28;20031;-47
2022/03/13 01:19:10;;;;;;;1.90;1.05;;;22.30;40.30;;;;;;5104110;28;20058;-47
2022/03/13 01:21:37;;;;;;;2.08;1.10;;;22.40;40.70;;;;;;5104967;28;20032;-47
2022/03/13 01:24:06;;;;;;;2.40;1.20;;;22.40;40.70;;;;;;5104250;28;20103;-48
2022/03/13 01:26:36;;;;;;;1.75;1.20;;;22.40;40.60;;;;;;5097031;28;20080;-48
2022/03/13 01:29:05;;;;;;;1.58;1.00;;;22.40;41.10;;;;;;5102286;28;20044;-47
2022/03/13 01:31:33;;;;;;;1.73;1.20;;;22.30;40.20;;;;;;5102091;28;20028;-48
2022/03/13 01:33:59;;;;;;;2.15;1.55;;;22.30;40.20;;;;;;5104880;28;20091;-47
2022/03/13 01:36:25;;;;;;;1.70;1.10;;;22.30;40.20;;;;;;5104882;28;20043;-47
2022/03/13 01:38:53;;;;;;;2.67;1.50;;;22.40;40.30;;;;;;5103188;28;20027;-47
2022/03/13 01:41:20;;;;;;;1.95;1.42;;;22.40;40.40;;;;;;5104159;28;20016;-51
2022/03/13 01:43:46;;;;;;;2.00;1.27;;;22.50;40.90;;;;;;5095803;28;20489;-47
2022/03/13 01:46:12;;;;;;;1.70;1.20;;;22.50;40.70;;;;;;5100808;28;20056;-47
2022/03/13 01:48:41;;;;;;;2.53;1.30;;;22.50;40.60;;;;;;5103893;28;20039;-50
2022/03/13 01:51:07;;;;;;;2.15;1.50;;;22.40;40.30;;;;;;5104735;28;20032;-49
2022/03/13 01:53:34;;;;;;;2.33;1.35;;;22.40;40.30;;;;;;5104383;28;20035;-47
2022/03/13 01:56:00;;;;;;;1.83;1.13;;;22.40;40.00;;;;;;5101608;28;20096;-51
2022/03/13 01:58:26;;;;;;;1.60;1.00;;;22.40;40.10;;;;;;5103324;28;20028;-48
2022/03/13 02:00:52;;;;;;;1.60;0.90;;;22.50;40.00;;;;;;5091167;28;20045;-47
2022/03/13 02:03:18;;;;;;;1.48;1.00;;;22.50;40.70;;;;;;5089341;28;20030;-47
2022/03/13 02:05:45;;;;;;;1.67;1.00;;;22.50;40.40;;;;;;5093252;28;20112;-50
2022/03/13 02:08:21;;;;;;;1.40;0.90;;;22.50;40.30;;;;;;5091719;28;20052;-49
2022/03/13 02:10:47;;;;;;;1.27;0.85;;;22.50;40.40;;;;;;5087449;28;20040;-49
2022/03/13 02:13:16;;;;;;;1.75;0.93;;;22.40;40.10;;;;;;5091140;28;20032;-48
2022/03/13 02:15:42;;;;;;;2.22;1.00;;;22.40;40.10;;;;;;5091908;28;20036;-48
2022/03/13 02:18:08;;;;;;;1.00;0.90;;;22.40;40.00;;;;;;5090155;28;20052;-49
2022/03/13 02:20:44;;;;;;;1.73;0.65;;;22.50;40.00;;;;;;5091333;28;20024;-47
2022/03/13 02:23:20;;;;;;;1.20;0.82;;;22.50;40.20;;;;;;5090780;28;20040;-49
2022/03/13 02:25:53;;;;;;;1.23;0.70;;;22.50;40.30;;;;;;5091340;28;20089;-48
2022/03/13 02:28:21;;;;;;;1.38;0.90;;;22.40;40.10;;;;;;5094575;28;20107;-47
2022/03/13 02:30:48;;;;;;;1.33;0.70;;;22.40;40.00;;;;;;5100889;28;20050;-47
2022/03/13 02:33:17;;;;;;;0.85;0.70;;;22.40;39.90;;;;;;5103559;28;20039;-49
2022/03/13 02:35:43;;;;;;;0.90;0.68;;;22.40;39.80;;;;;;5085448;28;20021;-48
2022/03/13 02:38:09;;;;;;;0.95;0.55;;;22.50;40.00;;;;;;5090020;28;20028;-50
2022/03/13 02:40:35;;;;;;;0.95;0.60;;;22.60;40.50;;;;;;5099033;28;20059;-48
2022/03/13 02:43:01;;;;;;;0.90;0.45;;;22.50;40.20;;;;;;5103034;28;20038;-49
2022/03/13 02:45:29;;;;;;;0.85;0.50;;;22.50;40.20;;;;;;5103548;28;20027;-48
2022/03/13 02:47:55;;;;;;;;;;;22.40;39.90;;;;;;5083538;28;20028;-48
2022/03/13 02:50:22;;;;;;;0.80;0.50;;;22.40;39.80;;;;;;5082162;28;19912;-47
2022/03/13 02:52:48;;;;;;;1.00;0.60;;;22.40;39.70;;;;;;5082222;28;20126;-48
2022/03/13 02:55:14;;;;;;;0.90;0.73;;;22.50;39.80;;;;;;5079514;28;20379;-49
2022/03/13 02:57:40;;;;;;;1.00;0.65;;;22.50;40.00;;;;;;5082176;28;20035;-47
2022/03/13 03:00:08;;;;;;;0.60;0.50;;;22.60;40.20;;;;;;5079742;28;20035;-48
2022/03/13 03:02:35;;;;;;;0.60;0.40;;;22.60;40.10;;;;;;5082161;28;20043;-47
2022/03/13 03:05:05;;;;;;;1.33;0.50;;;22.50;40.20;;;;;;5080220;28;20032;-47
2022/03/13 03:07:31;;;;;;;0.95;0.50;;;22.50;40.00;;;;;;5082678;28;20061;-47
2022/03/13 03:09:57;;;;;;;1.00;0.50;;;22.40;39.90;;;;;;5090848;28;20036;-47
2022/03/13 03:12:24;;;;;;;0.77;0.50;;;22.50;39.70;;;;;;5084896;28;20028;-47
2022/03/13 03:14:50;;;;;;;0.65;0.50;;;22.50;39.60;;;;;;5091855;28;20047;-47
2022/03/13 03:17:16;;;;;;;1.00;0.40;;;22.50;39.70;;;;;;5091740;28;20812;-47
2022/03/13 03:19:43;;;;;;;0.73;0.50;;;22.60;40.50;;;;;;5102576;28;20054;-48
2022/03/13 03:22:09;;;;;;;0.40;0.30;;;22.50;39.90;;;;;;5102666;28;20043;-48
2022/03/13 03:24:35;;;;;;;0.52;0.40;;;22.50;39.70;;;;;;5102876;28;20530;-48
2022/03/13 03:27:01;;;;;;;0.50;0.40;;;22.40;39.60;;;;;;5102006;28;20128;-47
2022/03/13 03:29:28;;;;;;;0.40;0.30;;;22.40;39.60;;;;;;5100282;28;20032;-46
2022/03/13 03:31:54;;;;;;;1.55;0.40;;;22.50;39.60;;;;;;5102683;28;20034;-49
2022/03/13 03:34:22;;;;;;;0.73;0.40;;;22.50;39.60;;;;;;5102530;28;20118;-49
2022/03/13 03:36:49;;;;;;;0.40;0.38;;;22.50;39.80;;;;;;5098233;28;20269;-48
2022/03/13 03:39:16;;;;;;;0.47;0.30;;;22.50;39.90;;;;;;5085413;28;20042;-47
2022/03/13 03:41:44;;;;;;;0.50;0.30;;;22.50;39.90;;;;;;5086836;28;20037;-46
2022/03/13 03:44:10;;;;;;;;;;;22.50;39.80;;;;;;5082642;28;20032;-48
2022/03/13 03:46:36;;;;;;;0.60;0.35;;;22.40;39.60;;;;;;5091275;28;19908;-46
2022/03/13 03:49:02;;;;;;;0.40;0.40;;;22.40;39.50;;;;;;5099768;28;20146;-46
2022/03/13 03:51:29;;;;;;;0.65;0.35;;;22.40;39.50;;;;;;5102397;28;20023;-48
2022/03/13 03:53:55;;;;;;;0.22;0.22;;;22.50;39.70;;;;;;5095374;28;20031;-50
2022/03/13 03:56:21;;;;;;;0.57;0.35;;;22.50;39.40;;;;;;5101910;28;20055;-49
2022/03/13 03:58:48;;;;;;;0.20;0.20;;;22.60;39.80;;;;;;5100871;28;20059;-47
2022/03/13 04:01:15;;;;;;;0.70;0.38;;;22.60;39.80;;;;;;5096665;28;20033;-49
2022/03/13 04:03:41;;;;;;;0.30;0.30;;;22.50;39.80;;;;;;5101989;28;20039;-48
2022/03/13 04:06:07;;;;;;;0.32;0.28;;;22.50;39.60;;;;;;5100378;28;20028;-46
2022/03/13 04:08:34;;;;;;;0.30;0.30;;;22.40;39.60;;;;;;5101774;28;20032;-46
2022/03/13 04:11:00;;;;;;;0.30;0.30;;;22.40;39.50;;;;;;5102056;28;20055;-52
2022/03/13 04:13:28;;;;;;;1.00;0.30;;;22.50;39.50;;;;;;5101436;28;20563;-47
2022/03/13 04:15:55;;;;;;;0.60;0.50;;;22.50;39.40;;;;;;5100062;28;20092;-49
2022/03/13 04:18:22;;;;;;;0.20;0.20;;;22.50;39.80;;;;;;5096550;28;20047;-47
2022/03/13 04:20:48;;;;;;;0.20;0.20;;;22.50;39.80;;;;;;5097648;28;20028;-47
2022/03/13 04:23:14;;;;;;;0.40;0.30;;;22.50;39.80;;;;;;5095241;28;20040;-49
2022/03/13 04:25:40;;;;;;;0.30;0.20;;;22.40;39.50;;;;;;5094419;28;20021;-48
2022/03/13 04:28:09;;;;;;;0.30;0.20;;;22.40;39.60;;;;;;5093614;28;20548;-47
2022/03/13 04:30:40;;;;;;;0.55;0.30;;;22.40;39.50;;;;;;5095387;28;20039;-51
2022/03/13 04:33:06;;;;;;;0.68;0.50;;;22.50;39.60;;;;;;5097827;28;20119;-49
2022/03/13 04:35:33;;;;;;;0.50;0.30;;;22.50;39.30;;;;;;5094610;28;20032;-48
2022/03/13 04:38:20;;;;;;;0.38;0.30;;;22.60;39.70;;;;;;5094959;28;20049;-48
2022/03/13 04:40:46;;;;;;;0.30;0.20;;;22.60;39.90;;;;;;5010392;28;20094;-52
2022/03/13 04:43:12;;;;;;;0.20;0.20;;;22.50;39.70;;;;;;5005815;28;20042;-48
2022/03/13 04:45:38;;;;;;;0.40;0.30;;;22.40;39.60;;;;;;5008855;28;20038;-49
2022/03/13 04:48:04;;;;;;;0.47;0.20;;;22.40;39.60;;;;;;5003577;28;20062;-48
2022/03/13 04:50:30;;;;;;;0.50;0.20;;;22.40;39.50;;;;;;5001777;28;20027;-49
2022/03/13 04:52:57;;;;;;;0.40;0.30;;;22.50;39.50;;;;;;5008827;28;20038;-48
2022/03/13 04:55:23;;;;;;;0.80;0.28;;;22.50;39.70;;;;;;5014073;28;20436;-47
2022/03/13 04:57:49;;;;;;;0.25;0.10;;;22.60;40.10;;;;;;5016297;28;20098;-49
2022/03/13 05:00:15;;;;;;;0.20;0.20;;;22.60;40.10;;;;;;5003296;28;20053;-46
2022/03/13 05:02:43;;;;;;;0.23;0.23;;;22.60;40.10;;;;;;5004015;28;20026;-49
2022/03/13 05:05:09;;;;;;;;;;;22.50;39.90;;;;;;5006487;28;20049;-47
2022/03/13 05:07:36;;;;;;;0.43;0.20;;;22.40;39.70;;;;;;5010684;28;19917;-47
2022/03/13 05:10:03;;;;;;;0.20;0.20;;;22.40;39.80;;;;;;5008847;28;20036;-47
2022/03/13 05:12:29;;;;;;;0.55;0.40;;;22.50;39.80;;;;;;5008578;28;20146;-48
2022/03/13 05:14:55;;;;;;;0.30;0.20;;;22.50;39.70;;;;;;5003253;28;20113;-47
2022/03/13 05:17:22;;;;;;;0.38;0.20;;;22.60;39.90;;;;;;5032673;28;20024;-46
2022/03/13 05:19:48;;;;;;;0.20;0.20;;;22.60;40.00;;;;;;5097559;28;20052;-47
2022/03/13 05:22:14;;;;;;;0.22;0.20;;;22.60;40.20;;;;;;5086959;28;20055;-49
2022/03/13 05:24:40;;;;;;;0.28;0.20;;;22.50;40.00;;;;;;5087279;28;20035;-51
2022/03/13 05:27:07;;;;;;;0.30;0.20;;;22.40;39.90;;;;;;5092275;28;20020;-48
2022/03/13 05:29:33;;;;;;;0.28;0.25;;;22.40;39.90;;;;;;5087948;28;20040;-47
2022/03/13 05:31:59;;;;;;;0.28;0.20;;;22.40;39.90;;;;;;5088539;28;20020;-48
2022/03/13 05:34:25;;;;;;;0.28;0.20;;;22.50;40.00;;;;;;5089599;28;20969;-47
2022/03/13 05:36:51;;;;;;;0.20;0.10;;;22.50;40.10;;;;;;5088769;28;20031;-48
2022/03/13 05:39:17;;;;;;;0.45;0.30;;;22.60;40.30;;;;;;5093829;28;20035;-47
2022/03/13 05:41:43;;;;;;;0.30;0.30;;;22.60;40.30;;;;;;5091247;28;20036;-47
2022/03/13 05:44:12;;;;;;;0.20;0.20;;;22.50;40.30;;;;;;5078953;28;20059;-47
2022/03/13 05:46:38;;;;;;;0.38;0.20;;;22.40;40.10;;;;;;5082117;28;20780;-48
2022/03/13 05:49:04;;;;;;;0.43;0.25;;;22.40;40.00;;;;;;5082600;28;20048;-47
2022/03/13 05:51:36;;;;;;;0.75;0.25;;;22.40;40.00;;;;;;5093103;28;20024;-47
2022/03/13 05:54:03;;;;;;;0.40;0.28;;;22.40;40.10;;;;;;5093832;28;20405;-48
2022/03/13 05:56:29;;;;;;;0.30;0.30;;;22.50;40.00;;;;;;5094638;28;20020;-47
2022/03/13 05:58:55;;;;;;;0.20;0.20;;;22.60;40.10;;;;;;5084912;28;20036;-46
2022/03/13 06:01:21;;;;;;;0.60;0.20;;;22.60;40.90;;;;;;5076850;28;20051;-47
2022/03/13 06:03:48;;;;;;;0.40;0.20;;;22.50;40.20;;;;;;5074972;28;20028;-47
2022/03/13 06:06:14;;;;;;;0.43;0.35;;;22.40;39.90;;;;;;5076784;28;20054;-46
2022/03/13 06:08:41;;;;;;;0.22;0.22;;;22.40;40.00;;;;;;5075265;28;20044;-47
2022/03/13 06:11:08;;;;;;;0.20;0.17;;;22.50;40.10;;;;;;5074195;28;20092;-47
2022/03/13 06:13:34;;;;;;;0.20;0.20;;;22.50;40.10;;;;;;5080523;28;20035;-47
2022/03/13 06:16:00;;;;;;;0.37;0.30;;;22.50;40.10;;;;;;5079754;28;20337;-48
2022/03/13 06:18:32;;;;;;;0.30;0.28;;;22.60;40.20;;;;;;5083979;28;20047;-48
2022/03/13 06:20:59;;;;;;;0.57;0.38;;;22.50;40.30;;;;;;5084905;28;20085;-48
2022/03/13 06:23:25;;;;;;;0.15;0.15;;;22.50;40.20;;;;;;5080716;28;20040;-47
2022/03/13 06:25:52;;;;;;;0.22;0.20;;;22.40;40.10;;;;;;5083650;28;20055;-47
2022/03/13 06:28:21;;;;;;;0.15;0.15;;;22.40;40.00;;;;;;5076045;28;20033;-47
2022/03/13 06:30:47;;;;;;;0.32;0.28;;;22.50;40.00;;;;;;5085051;28;20062;-47
2022/03/13 06:33:13;;;;;;;0.43;0.30;;;22.50;39.90;;;;;;5088077;28;20039;-47
2022/03/13 06:35:39;;;;;;;0.20;0.20;;;22.50;39.80;;;;;;5089842;28;20054;-47
2022/03/13 06:38:25;;;;;;;0.25;0.25;;;22.60;40.30;;;;;;5024386;28;20045;-47
2022/03/13 06:40:52;;;;;;;0.30;0.30;;;22.50;40.20;;;;;;5023604;28;20037;-48
2022/03/13 06:43:18;;;;;;;0.38;0.20;;;22.50;40.60;;;;;;5023652;28;20033;-46
2022/03/13 06:45:44;;;;;;;0.25;0.20;;;22.40;40.00;;;;;;5028050;28;20026;-47
2022/03/13 06:48:11;;;;;;;0.22;0.22;;;22.40;40.10;;;;;;5023415;28;20041;-47
2022/03/13 06:50:38;;;;;;;0.13;0.13;;;22.50;40.10;;;;;;5028478;28;20048;-49
2022/03/13 06:53:04;;;;;;;0.30;0.28;;;22.50;40.10;;;;;;5023077;28;20030;-47
2022/03/13 06:55:30;;;;;;;0.20;0.20;;;22.60;40.00;;;;;;5027197;28;20041;-46
2022/03/13 06:57:56;;;;;;;0.20;0.20;;;22.60;40.20;;;;;;5034930;28;20286;-46
2022/03/13 07:00:23;;;;;;;0.32;0.17;;;22.60;40.30;;;;;;5027664;28;20053;-47
2022/03/13 07:02:49;;;;;;;0.40;0.20;;;22.50;40.20;;;;;;5040371;28;20065;-47
2022/03/13 07:05:16;;;;;;;0.20;0.20;;;22.40;40.00;;;;;;5040583;28;20025;-47
2022/03/13 07:07:42;;;;;;;0.10;0.10;;;22.50;40.10;;;;;;5038718;28;20071;-47
2022/03/13 07:10:11;;;;;;;0.20;0.20;;;22.50;40.10;;;;;;5039906;28;20398;-49
2022/03/13 07:12:37;;;;;;;0.15;0.15;;;22.50;40.10;;;;;;5039609;28;20151;-49
2022/03/13 07:15:10;;;;;;;0.08;0.08;;;22.60;40.80;;;;;;5054764;28;20028;-46
2022/03/13 07:17:36;;;;;;;0.20;0.17;;;22.60;40.40;;;;;;5091088;28;20044;-47
2022/03/13 07:20:03;;;;;;;0.10;0.10;;;22.60;40.30;;;;;;5102789;28;20028;-47
2022/03/13 07:22:29;;;;;;;0.22;0.20;;;22.50;40.20;;;;;;5100506;28;20841;-47
2022/03/13 07:24:55;;;;;;;0.30;0.25;;;22.40;40.10;;;;;;5103225;28;20093;-49
2022/03/13 07:27:21;;;;;;;0.43;0.20;;;22.40;40.10;;;;;;5099155;28;20038;-46
2022/03/13 07:29:49;;;;;;;0.25;0.20;;;22.50;40.20;;;;;;5101849;28;20024;-47
2022/03/13 07:32:16;;;;;;;0.20;0.10;;;22.50;40.00;;;;;;5089677;28;20031;-47
2022/03/13 07:34:42;;;;;;;0.20;0.20;;;22.60;40.20;;;;;;5103060;28;20054;-47
2022/03/13 07:37:10;;;;;;;0.30;0.20;;;22.50;40.30;;;;;;5098118;28;20820;-49
2022/03/13 07:39:37;;;;;;;0.60;0.20;;;22.50;40.30;;;;;;5099725;28;20047;-47
2022/03/13 07:42:04;;;;;;;0.20;0.20;;;22.40;40.10;;;;;;5099804;28;20024;-46
2022/03/13 07:44:30;;;;;;;0.20;0.10;;;22.40;40.10;;;;;;5102020;28;20027;-48
2022/03/13 07:46:56;;;;;;;0.25;0.20;;;22.40;40.10;;;;;;5102704;28;20028;-46
2022/03/13 07:49:22;;;;;;;0.52;0.20;;;22.50;40.10;;;;;;5084838;28;20067;-47
2022/03/13 07:51:48;;;;;;;0.20;0.10;;;22.50;40.20;;;;;;5102500;28;20603;-48
2022/03/13 07:54:15;;;;;;;0.10;0.10;;;22.60;40.50;;;;;;5102735;28;20059;-49
2022/03/13 07:56:42;;;;;;;0.20;0.20;;;22.50;40.30;;;;;;5101100;28;20035;-48
2022/03/13 07:59:08;;;;;;;0.20;0.20;;;22.40;40.30;;;;;;5101744;28;20622;-46
2022/03/13 08:01:34;;;;;;;0.50;0.20;;;22.40;40.20;;;;;;5087322;28;20090;-47
2022/03/13 08:04:05;;;;;;;0.38;0.30;;;22.40;40.20;;;;;;5082158;28;20032;-48
2022/03/13 08:06:35;;;;;;;0.30;0.20;;;22.50;40.30;;;;;;5099585;28;20114;-47
2022/03/13 08:09:02;;;;;;;0.10;0.10;;;22.50;40.30;;;;;;5083707;28;20076;-46
2022/03/13 08:11:28;;;;;;;0.30;0.20;;;22.60;40.40;;;;;;5102685;28;20024;-46
2022/03/13 08:13:54;;;;;;;0.20;0.20;;;22.60;40.50;;;;;;5102406;28;20091;-46
2022/03/13 08:16:20;;;;;;;0.20;0.20;;;22.50;40.40;;;;;;5102319;28;20031;-46
2022/03/13 08:18:47;;;;;;;0.30;0.20;;;22.40;40.30;;;;;;5102472;28;20052;-48
2022/03/13 08:21:13;;;;;;;0.20;0.20;;;22.40;40.20;;;;;;5102582;28;20027;-47
2022/03/13 08:23:39;;;;;;;0.20;0.10;;;22.50;40.20;;;;;;5102848;28;20024;-47
2022/03/13 08:26:05;;;;;;;1.70;0.20;;;22.50;40.20;;;;;;5097328;28;20033;-47
2022/03/13 08:28:32;;;;;;;0.30;0.30;;;22.60;40.40;;;;;;5105507;28;20048;-47
2022/03/13 08:30:58;;;;;;;0.20;0.10;;;22.60;40.30;;;;;;5106547;28;20020;-46
2022/03/13 08:33:24;;;;;;;0.10;0.10;;;22.60;40.50;;;;;;5106644;28;20042;-47
2022/03/13 08:35:50;;;;;;;0.15;0.15;;;22.50;41.00;;;;;;5106172;28;20031;-46
2022/03/13 08:38:16;;;;;;;0.20;0.10;;;22.40;40.20;;;;;;5095828;28;20063;-46
2022/03/13 08:40:43;;;;;;;0.40;0.20;;;22.40;40.20;;;;;;5086223;28;20354;-46
2022/03/13 08:43:09;;;;;;;0.35;0.20;;;22.40;40.20;;;;;;5096880;28;20044;-46
2022/03/13 08:45:35;;;;;;;0.30;0.25;;;22.50;40.30;;;;;;5105974;28;20445;-47
2022/03/13 08:48:01;;;;;;;0.35;0.25;;;22.50;40.30;;;;;;5106305;28;20040;-46
2022/03/13 08:50:27;;;;;;;0.20;0.20;;;22.60;40.40;;;;;;5106075;28;20024;-47
2022/03/13 08:52:55;;;;;;;0.20;0.20;;;22.60;40.60;;;;;;5106129;28;20032;-46
2022/03/13 08:55:22;;;;;;;0.47;0.20;;;22.50;40.50;;;;;;5106044;28;20020;-46
2022/03/13 08:57:48;;;;;;;0.32;0.30;;;22.50;40.40;;;;;;5105818;28;20032;-46
2022/03/13 09:00:15;;;;;;;0.30;0.20;;;22.40;40.30;;;;;;5106123;28;20055;-46
2022/03/13 09:02:43;;;;;;;0.30;0.30;;;22.40;40.40;;;;;;5105931;28;20069;-48
2022/03/13 09:05:10;;;;;;;0.22;0.20;;;22.50;40.30;;;;;;5105974;28;20045;-46
2022/03/13 09:07:36;;;;;;;0.20;0.20;;;22.50;40.30;;;;;;5096971;28;20040;-46
2022/03/13 09:10:07;;;;;;;0.50;0.20;;;22.60;40.30;;;;;;5090953;28;20120;-48
2022/03/13 09:12:33;;;;;;;0.30;0.20;;;22.60;40.50;;;;;;5105267;28;20016;-47
2022/03/13 09:15:00;;;;;;;0.23;0.23;;;22.50;40.40;;;;;;5100448;28;20460;-46
2022/03/13 09:17:26;;;;;;;0.17;0.17;;;22.50;40.40;;;;;;5105530;28;20568;-46
2022/03/13 09:19:53;;;;;;;0.22;0.20;;;22.40;40.30;;;;;;5105691;28;20074;-47
2022/03/13 09:22:20;;;;;;;0.30;0.30;;;22.50;40.30;;;;;;5105426;28;20020;-47
2022/03/13 09:24:46;;;;;;;0.30;0.20;;;22.50;40.30;;;;;;5105761;28;20720;-46
2022/03/13 09:27:12;;;;;;;0.30;0.30;;;22.50;40.30;;;;;;5105131;28;20272;-50
2022/03/13 09:29:39;;;;;;;0.17;0.13;;;22.60;40.40;;;;;;5105344;28;20040;-46
2022/03/13 09:32:06;;;;;;;0.20;0.20;;;22.60;40.60;;;;;;5105255;28;20024;-46
2022/03/13 09:34:32;;;;;;;;;;;22.50;40.50;;;;;;5105743;28;21147;-46
2022/03/13 09:36:59;;;;;;;0.73;0.20;;;22.40;40.40;;;;;;5104029;28;20368;-46
2022/03/13 09:39:29;;;;;;;0.20;0.10;;;22.40;40.40;;;;;;5105141;28;20028;-46
2022/03/13 09:41:56;;;;;;;0.17;0.17;;;22.50;40.40;;;;;;5087967;28;20036;-47
2022/03/13 09:44:24;;;;;;;0.38;0.28;;;22.50;40.90;;;;;;5089847;28;20038;-46
2022/03/13 09:46:50;;;;;;;0.55;0.20;;;22.60;40.50;;;;;;5104962;28;20677;-46
2022/03/13 09:49:17;;;;;;;0.10;0.10;;;22.60;40.80;;;;;;5104375;28;20051;-47
2022/03/13 09:51:43;;;;;;;0.20;0.20;;;22.50;40.70;;;;;;5104369;28;20020;-47
2022/03/13 09:54:10;;;;;;;0.20;0.13;;;22.40;40.50;;;;;;5104808;28;20980;-46
2022/03/13 09:56:38;;;;;;;0.50;0.22;;;22.40;40.40;;;;;;5104476;28;20036;-46
2022/03/13 09:59:04;;;;;;;0.20;0.15;;;22.40;40.50;;;;;;5104936;28;20058;-47
2022/03/13 10:01:30;;;;;;;0.30;0.20;;;22.50;40.60;;;;;;5104214;28;20020;-46
2022/03/13 10:03:56;;;;;;;0.10;0.10;;;22.50;41.10;;;;;;5086465;28;20096;-46
2022/03/13 10:06:24;;;;;;;0.10;0.10;;;22.50;40.60;;;;;;5104772;28;20028;-46
2022/03/13 10:08:51;;;;;;;0.20;0.20;;;22.50;40.70;;;;;;5067385;28;20489;-47
2022/03/13 10:11:20;;;;;;;0.20;0.20;;;22.50;40.60;;;;;;5092933;28;20024;-47
2022/03/13 10:13:46;;;;;;;0.45;0.22;;;22.40;40.60;;;;;;5050214;28;20044;-46
2022/03/13 10:16:19;;;;;;;0.28;0.20;;;22.40;40.60;;;;;;5104501;28;20095;-46
2022/03/13 10:18:46;;;;;;;0.45;0.25;;;22.40;40.60;;;;;;5104399;28;20048;-46
2022/03/13 10:21:13;;;;;;;0.40;0.30;;;22.50;40.50;;;;;;5104639;28;20020;-46
2022/03/13 10:23:40;;;;;;;0.50;0.30;;;22.50;40.60;;;;;;5104488;28;20024;-47
2022/03/13 10:26:07;;;;;;;0.28;0.20;;;22.50;40.80;;;;;;5086358;28;20040;-46
2022/03/13 10:28:37;;;;;;;0.83;0.30;;;22.50;40.70;;;;;;5089316;28;20467;-46
2022/03/13 10:31:03;;;;;;;0.28;0.20;;;22.40;40.60;;;;;;5095173;28;20107;-46
2022/03/13 10:33:42;;;;;;;0.40;0.20;;;22.40;40.60;;;;;;5104197;28;20082;-47
2022/03/13 10:36:16;;;;;;;0.20;0.20;;;22.40;40.60;;;;;;5104327;28;20020;-46
2022/03/13 10:38:43;;;;;;;0.38;0.20;;;22.40;40.60;;;;;;5103464;28;20497;-46
2022/03/13 10:41:11;;;;;;;0.20;0.20;;;22.50;40.70;;;;;;5101308;28;20035;-47
2022/03/13 10:43:46;;;;;;;0.20;0.20;;;22.60;40.80;;;;;;5095496;28;20032;-46
2022/03/13 10:46:25;;;;;;;0.20;0.13;;;22.60;40.90;;;;;;5094908;28;20087;-48
2022/03/13 10:48:52;;;;;;;0.30;0.20;;;22.50;40.80;;;;;;5099576;28;20073;-46
2022/03/13 10:51:18;;;;;;;0.35;0.20;;;22.40;40.70;;;;;;5103376;28;20020;-47
2022/03/13 10:53:45;;;;;;;0.20;0.13;;;22.40;40.70;;;;;;5068934;28;20043;-46
2022/03/13 10:56:12;;;;;;;0.20;0.20;;;22.50;41.30;;;;;;5094898;28;20031;-47
2022/03/13 10:58:39;;;;;;;;;;;22.50;40.80;;;;;;5094038;28;20036;-47
2022/03/13 11:01:07;;;;;;;0.20;0.20;;;22.50;40.80;;;;;;5102271;28;19930;-48
2022/03/13 11:03:34;;;;;;;0.20;0.20;;;22.60;40.80;;;;;;5102668;28;20468;-47
2022/03/13 11:06:01;;;;;;;;;;;22.60;40.90;;;;;;5103725;28;20031;-48
2022/03/13 11:08:28;;;;;;;0.10;0.10;;;22.50;40.80;;;;;;5099557;28;19915;-48
2022/03/13 11:10:55;;;;;;;0.40;0.20;;;22.40;40.70;;;;;;5093890;28;20024;-47
2022/03/13 11:13:22;;;;;;;0.35;0.25;;;22.40;40.70;;;;;;5086383;28;20047;-48
2022/03/13 11:15:49;;;;;;;0.20;0.20;;;22.40;40.70;;;;;;5107154;28;20022;-47
2022/03/13 11:18:16;;;;;;;0.30;0.20;;;22.50;40.80;;;;;;5084493;28;20040;-46
2022/03/13 11:20:42;;;;;;;0.28;0.20;;;22.50;40.70;;;;;;5102959;28;20032;-46
2022/03/13 11:23:09;;;;;;;0.30;0.20;;;22.60;40.80;;;;;;5084783;28;20030;-48
2022/03/13 11:25:38;;;;;;;0.20;0.10;;;22.50;40.80;;;;;;5102911;28;20024;-48
2022/03/13 11:28:05;;;;;;;0.13;0.10;;;22.40;40.70;;;;;;5095181;28;20061;-47
2022/03/13 11:30:35;;;;;;;0.93;0.38;;;22.40;40.80;;;;;;5102794;28;20031;-48
2022/03/13 11:33:02;;;;;;;0.20;0.20;;;22.40;40.80;;;;;;5102427;28;20035;-48
2022/03/13 11:35:31;;;;;;;0.40;0.20;;;22.50;40.80;;;;;;5100962;28;20650;-46
2022/03/13 11:38:00;;;;;;;0.20;0.20;;;22.50;40.70;;;;;;5101111;28;20071;-47
2022/03/13 11:40:34;;;;;;;0.25;0.20;;;22.60;40.90;;;;;;5102834;28;20034;-46
2022/03/13 11:43:16;;;;;;;0.17;0.17;;;22.50;41.00;;;;;;5087728;28;20416;-46
2022/03/13 11:45:55;;;;;;;0.20;0.20;;;22.50;40.80;;;;;;5077161;28;20389;-47
2022/03/13 11:48:21;;;;;;;0.25;0.25;;;22.40;40.70;;;;;;5097623;28;20035;-49
2022/03/13 11:51:02;;;;;;;0.30;0.20;;;22.40;40.80;;;;;;5102511;28;20855;-48
2022/03/13 11:53:30;;;;;;;0.35;0.20;;;22.50;40.80;;;;;;5089408;28;20043;-47
2022/03/13 11:56:09;;;;;;;0.20;0.20;;;22.50;40.70;;;;;;5101809;28;20035;-48
2022/03/13 11:58:55;;;;;;;0.20;0.20;;;22.60;40.70;;;;;;5101393;28;20036;-48
2022/03/13 12:01:37;;;;;;;0.43;0.32;;;22.60;40.90;;;;;;5102236;28;20028;-48
2022/03/13 12:04:03;;;;;;;0.30;0.22;;;22.50;40.90;;;;;;5092552;28;20095;-47
2022/03/13 12:06:41;;;;;;;0.25;0.20;;;22.40;40.70;;;;;;5101977;28;20036;-47
2022/03/13 12:09:14;;;;;;;0.38;0.30;;;22.40;40.80;;;;;;5101701;28;20610;-47
2022/03/13 12:11:45;;;;;;;0.30;0.22;;;22.50;40.80;;;;;;5101343;28;20032;-47
2022/03/13 12:14:13;;;;;;;0.30;0.20;;;22.50;40.80;;;;;;5089482;28;20025;-48
2022/03/13 12:16:41;;;;;;;0.20;0.20;;;22.50;40.80;;;;;;5097615;28;20027;-47
2022/03/13 12:19:07;;;;;;;;;;;22.60;41.00;;;;;;5102339;28;20067;-47
2022/03/13 12:21:35;;;;;;;0.15;0.10;;;22.50;40.90;;;;;;5102239;28;19930;-46
2022/03/13 12:24:15;;;;;;;0.40;0.20;;;22.40;40.80;;;;;;5093815;28;20036;-48
2022/03/13 12:26:52;;;;;;;0.28;0.28;;;22.40;40.80;;;;;;5102226;28;20020;-47
2022/03/13 12:29:18;;;;;;;0.20;0.20;;;22.40;40.80;;;;;;5101963;28;20032;-47
2022/03/13 12:31:49;;;;;;;0.13;0.13;;;22.50;40.80;;;;;;5093669;28;20025;-48
2022/03/13 12:34:24;;;;;;;0.25;0.20;;;22.50;40.60;;;;;;5100584;28;20028;-47
2022/03/13 12:36:53;;;;;;;0.20;0.17;;;22.60;40.80;;;;;;5099324;28;20024;-46
2022/03/13 12:39:19;;;;;;;0.20;0.20;;;22.50;40.80;;;;;;5101934;28;20023;-47
2022/03/13 12:41:46;;;;;;;0.28;0.25;;;22.40;40.70;;;;;;5101640;28;20032;-46
2022/03/13 12:44:13;;;;;;;0.30;0.30;;;22.40;40.60;;;;;;5078212;28;20055;-47
2022/03/13 12:46:40;;;;;;;0.57;0.30;;;22.40;40.50;;;;;;5097599;28;20032;-47
2022/03/13 12:49:08;;;;;;;0.13;0.13;;;22.50;40.40;;;;;;5101652;28;20044;-47